Time;durP1;ratioP1;P1;durP2;ratioP2;P2;SDS_P1;SDS_P2;PMS_P1;PMS_P2;Temp;Humidity;BMP_temperature;BMP_pressure;BME280_temperature;BME280_humidity;BME280_pressure;Samples;Min_cycle;Max_cycle;Signal;HPM_P1;HPM_P2
2023/10/14 00:01:14;;;;;;;15.37;6.50;;;;;;;16.75;85.73;99363.72;4215055;28;20254;-72
2023/10/14 00:03:45;;;;;;;17.27;6.13;;;;;;;16.79;85.34;99352.16;4216528;28;20313;-74
2023/10/14 00:06:13;;;;;;;16.23;6.03;;;;;;;16.79;85.40;99346.69;4225564;28;20238;-74
2023/10/14 00:08:59;;;;;;;16.03;6.13;;;;;;;16.87;84.79;99350.22;4220027;28;20435;-74
2023/10/14 00:11:32;;;;;;;15.90;5.90;;;;;;;16.78;84.86;99342.25;4206379;28;23819;-73
2023/10/14 00:13:59;;;;;;;16.67;6.87;;;;;;;16.81;84.94;99351.91;4217940;28;20787;-76
2023/10/14 00:18:58;;;;;;;14.73;6.63;;;;;;;16.76;84.71;99341.63;4207030;28;22679;-75
2023/10/14 00:21:26;;;;;;;20.87;6.90;;;;;;;16.83;84.52;99341.63;4223916;28;20239;-75
2023/10/14 00:23:56;;;;;;;16.07;6.40;;;;;;;16.81;84.62;99335.53;4225070;28;21969;-75
2023/10/14 00:26:27;;;;;;;16.87;7.20;;;;;;;16.80;84.19;99318.25;4216268;28;22959;-77
2023/10/14 00:28:54;;;;;;;16.40;6.63;;;;;;;16.61;85.31;99314.56;4217419;28;20243;-75
2023/10/14 00:31:23;;;;;;;17.50;6.90;;;;;;;16.64;84.96;99321.50;4222413;28;20293;-75
2023/10/14 00:33:52;;;;;;;16.00;7.00;;;;;;;16.65;84.81;99314.97;4221562;28;21300;-75
2023/10/14 00:36:23;;;;;;;14.73;6.37;;;;;;;16.61;85.00;99321.91;4217761;28;21500;-77
2023/10/14 00:38:57;;;;;;;17.07;6.93;;;;;;;16.65;84.92;99312.25;4221285;28;20247;-76
2023/10/14 00:41:28;;;;;;;21.43;6.47;;;;;;;16.71;84.49;99314.13;4220040;28;20235;-74
2023/10/14 00:43:56;;;;;;;18.97;6.93;;;;;;;16.60;84.93;99315.63;4215643;28;20294;-75
2023/10/14 00:46:30;;;;;;;18.73;7.40;;;;;;;16.58;84.87;99311.41;4216717;28;20291;-74
2023/10/14 00:49:02;;;;;;;14.73;6.47;;;;;;;16.55;85.08;99303.66;4193129;28;20247;-75
2023/10/14 00:51:33;;;;;;;16.37;7.10;;;;;;;16.57;84.83;99307.84;4209578;28;20714;-75
2023/10/14 00:54:04;;;;;;;19.07;6.80;;;;;;;16.63;84.52;99306.16;4229737;28;20224;-75
2023/10/14 00:56:31;;;;;;;17.00;6.70;;;;;;;16.54;84.67;99301.97;4221301;28;20299;-74
2023/10/14 00:59:04;;;;;;;14.03;6.70;;;;;;;16.44;84.83;99295.06;4217979;28;20306;-75
2023/10/14 01:01:32;;;;;;;17.07;6.47;;;;;;;16.44;85.02;99300.53;4227731;28;23150;-74
2023/10/14 01:04:21;;;;;;;16.00;7.00;;;;;;;16.45;84.88;99296.75;4208877;28;20235;-73
2023/10/14 01:07:04;;;;;;;19.73;6.60;;;;;;;16.51;84.35;99296.94;4209636;28;20228;-76
2023/10/14 01:12:16;;;;;;;13.20;6.30;;;;;;;16.61;83.29;99280.94;4235447;28;21783;-74
2023/10/14 01:14:44;;;;;;;19.27;6.97;;;;;;;16.69;82.88;99279.88;4226078;28;20660;-75
2023/10/14 01:20:25;;;;;;;13.27;6.47;;;;;;;16.71;82.27;99275.00;4223901;28;20403;-72
2023/10/14 01:22:55;;;;;;;18.80;7.00;;;;;;;16.64;82.14;99267.69;4232784;28;20239;-74
2023/10/14 01:25:31;;;;;;;23.23;7.13;;;;;;;16.57;82.46;99264.13;4210145;28;22925;-74
2023/10/14 01:27:59;;;;;;;15.40;6.83;;;;;;;16.64;81.90;99253.19;4220581;28;21599;-75
2023/10/14 01:30:26;;;;;;;21.20;7.30;;;;;;;16.65;81.53;99254.88;4217648;28;21951;-74
2023/10/14 01:33:08;;;;;;;18.57;7.50;;;;;;;16.64;81.75;99255.94;4210183;28;20235;-75
2023/10/14 01:35:41;;;;;;;21.03;7.10;;;;;;;16.74;81.08;99247.25;4216318;28;20240;-72
2023/10/14 01:38:08;;;;;;;20.07;7.00;;;;;;;16.74;80.63;99250.81;4210377;28;20227;-74
2023/10/14 01:40:49;;;;;;;19.60;6.80;;;;;;;16.74;80.88;99244.53;4209590;28;20727;-75
2023/10/14 01:43:16;;;;;;;18.87;6.87;;;;;;;16.67;80.97;99236.34;4226054;28;20238;-74
2023/10/14 01:48:25;;;;;;;14.03;6.10;;;;;;;16.66;80.61;99231.09;4201726;28;26083;-72
2023/10/14 01:50:57;;;;;;;24.07;6.97;;;;;;;16.62;80.56;99241.63;4227742;28;20239;-74
2023/10/14 01:53:34;;;;;;;14.37;6.33;;;;;;;16.59;80.68;99226.50;4228470;28;25727;-74
2023/10/14 01:56:02;;;;;;;16.90;6.80;;;;;;;16.56;80.71;99226.13;4205759;28;20309;-74
2023/10/14 01:58:36;;;;;;;18.53;6.47;;;;;;;16.66;79.62;99214.72;4220451;28;22143;-73
2023/10/14 02:03:46;;;;;;;15.93;6.83;;;;;;;16.66;79.29;99206.50;4213647;28;20554;-73
2023/10/14 02:06:20;;;;;;;19.73;6.77;;;;;;;16.84;78.35;99206.66;4209910;28;25126;-75
2023/10/14 02:08:48;;;;;;;13.43;5.93;;;;;;;16.83;78.32;99199.50;4206469;28;20231;-75
2023/10/14 02:11:16;;;;;;;21.87;6.17;;;;;;;16.86;77.99;99204.50;4210893;28;20240;-75
2023/10/14 02:13:42;;;;;;;16.03;6.23;;;;;;;16.80;77.88;99191.72;4215111;28;22299;-74
2023/10/14 02:16:09;;;;;;;14.93;6.10;;;;;;;16.92;77.16;99195.47;4218469;28;20235;-73
2023/10/14 02:18:37;;;;;;;19.37;6.90;;;;;;;16.88;77.26;99196.94;4224908;28;20236;-73
2023/10/14 02:21:16;;;;;;;17.10;6.00;;;;;;;16.91;76.79;99188.31;4212864;28;21552;-74
2023/10/14 02:23:44;;;;;;;22.77;6.60;;;;;;;16.95;76.36;99184.09;4213951;28;23689;-72
2023/10/14 02:26:22;;;;;;;19.87;5.90;;;;;;;16.94;76.71;99178.84;4213972;28;20235;-73
2023/10/14 02:28:52;;;;;;;17.20;6.37;;;;;;;16.87;76.46;99172.56;4209521;28;20228;-74
2023/10/14 02:31:29;;;;;;;17.67;5.63;;;;;;;16.87;76.33;99178.03;4208830;28;20379;-75
2023/10/14 02:33:57;;;;;;;14.27;5.47;;;;;;;16.80;76.52;99175.31;4213635;28;20238;-76
2023/10/14 02:36:35;;;;;;;13.87;5.97;;;;;;;16.77;76.12;99171.13;4204392;28;21697;-76
2023/10/14 02:39:17;;;;;;;13.47;6.27;;;;;;;16.80;76.13;99176.16;4209639;28;20238;-75
2023/10/14 02:41:45;;;;;;;19.20;6.40;;;;;;;16.84;75.80;99162.06;4209012;28;20893;-74
2023/10/14 02:46:46;;;;;;;14.40;5.80;;;;;;;16.92;75.33;99159.91;4203552;28;20240;-75
2023/10/14 02:49:14;;;;;;;20.03;6.03;;;;;;;16.83;75.08;99139.38;4209079;28;20319;-76
2023/10/14 02:51:43;;;;;;;16.40;6.47;;;;;;;16.97;74.58;99152.97;4213680;28;20259;-75
2023/10/14 02:54:15;;;;;;;10.53;5.27;;;;;;;17.00;74.38;99147.91;4211073;28;20231;-75
2023/10/14 02:59:19;;;;;;;17.83;5.53;;;;;;;17.15;73.48;99146.72;4219177;28;20591;-76
2023/10/14 03:04:40;;;;;;;13.10;5.60;;;;;;;17.25;72.80;99131.50;4210708;28;20944;-75
2023/10/14 03:07:08;;;;;;;16.03;5.60;;;;;;;17.30;72.18;99125.38;4196513;28;21876;-75
2023/10/14 03:09:35;;;;;;;20.03;5.83;;;;;;;17.27;72.31;99128.53;4225039;28;20600;-73
2023/10/14 03:12:01;;;;;;;12.07;5.47;;;;;;;17.34;71.88;99109.34;4215366;28;22971;-77
2023/10/14 03:14:29;;;;;;;12.37;4.53;;;;;;;17.35;71.61;99109.09;4209325;28;21641;-73
2023/10/14 03:16:56;;;;;;;17.67;6.00;;;;;;;17.46;71.27;99106.69;4223184;28;20393;-74
2023/10/14 03:19:25;;;;;;;21.63;6.20;;;;;;;17.42;71.04;99098.13;4225994;28;20313;-76
2023/10/14 03:22:00;;;;;;;14.90;5.67;;;;;;;17.43;71.01;99097.06;4222874;28;21193;-74
2023/10/14 03:24:30;;;;;;;13.67;5.57;;;;;;;17.49;70.56;99093.41;4212362;28;20325;-75
2023/10/14 03:27:04;;;;;;;14.57;5.90;;;;;;;17.53;70.24;99085.59;4216010;28;20917;-73
2023/10/14 03:29:31;;;;;;;15.17;5.87;;;;;;;17.44;70.05;99090.53;4228315;28;20486;-73
2023/10/14 03:31:57;;;;;;;18.87;5.83;;;;;;;17.45;69.71;99059.34;4228264;28;20319;-75
2023/10/14 03:34:30;;;;;;;13.40;5.10;;;;;;;17.49;69.56;99063.31;4207827;28;20243;-73
2023/10/14 03:37:16;;;;;;;13.97;4.87;;;;;;;17.52;69.53;99062.84;4232188;28;23281;-74
2023/10/14 03:40:34;;;;;;;14.10;5.07;;;;;;;17.58;68.99;99040.06;4228155;28;20240;-73
2023/10/14 03:42:33;;;;;;;15.03;5.67;;;;;;;17.51;68.72;99042.03;4220085;28;20356;-73
2023/10/14 03:44:59;;;;;;;12.07;5.30;;;;;;;17.53;68.67;99031.69;4219667;28;21517;-75
2023/10/14 03:47:34;;;;;;;14.53;5.50;;;;;;;17.58;68.83;99037.34;4221524;28;20669;-75
2023/10/14 03:50:01;;;;;;;13.10;5.33;;;;;;;17.57;68.27;99026.59;4224444;28;20234;-74
2023/10/14 03:52:29;;;;;;;17.30;5.50;;;;;;;17.59;68.30;99021.75;4215297;28;20424;-76
2023/10/14 03:54:55;;;;;;;16.70;5.47;;;;;;;17.62;68.15;99014.97;4197807;28;20311;-74
2023/10/14 03:57:33;;;;;;;18.40;5.40;;;;;;;17.49;68.34;99000.38;4224281;28;20222;-71
2023/10/14 04:00:09;;;;;;;15.73;4.83;;;;;;;17.60;67.85;99012.47;4202809;28;20596;-75
2023/10/14 04:02:39;;;;;;;17.03;5.70;;;;;;;17.62;67.68;99014.97;4212446;28;20243;-74
2023/10/14 04:05:11;;;;;;;23.37;5.73;;;;;;;17.56;67.50;99009.34;4214776;28;20365;-72
2023/10/14 04:07:40;;;;;;;15.47;5.27;;;;;;;17.71;66.54;99011.69;4218908;28;20251;-74
2023/10/14 04:10:09;;;;;;;12.97;5.53;;;;;;;17.76;66.19;99018.41;4228230;28;20301;-74
2023/10/14 04:17:46;;;;;;;17.63;5.20;;;;;;;17.90;64.59;98998.81;4232478;28;20749;-75
2023/10/14 04:22:39;;;;;;;22.40;5.43;;;;;;;17.91;63.62;98985.97;4253933;28;20235;-75
2023/10/14 04:30:24;;;;;;;10.63;4.03;;;;;;;18.23;61.32;98973.97;4222030;28;20235;-73
2023/10/14 04:35:25;;;;;;;16.33;5.13;;;;;;;18.35;60.62;98974.84;4217406;28;20240;-74
2023/10/14 04:37:54;;;;;;;15.77;5.03;;;;;;;18.34;60.97;98962.22;4214897;28;20331;-73
2023/10/14 04:46:13;;;;;;;18.23;4.70;;;;;;;18.12;61.96;98960.03;4210289;28;20234;-77
2023/10/14 04:48:59;;;;;;;17.80;4.87;;;;;;;18.16;62.04;98954.91;4237611;28;20642;-76
2023/10/14 04:54:26;;;;;;;15.67;4.60;;;;;;;18.10;63.00;98934.78;4196350;28;20971;-76
2023/10/14 04:56:57;;;;;;;17.80;5.00;;;;;;;18.02;63.55;98943.31;4214626;28;21262;-73
2023/10/14 04:59:27;;;;;;;10.50;4.37;;;;;;;17.99;63.97;98955.56;4223780;28;20308;-72
2023/10/14 05:01:55;;;;;;;9.77;4.57;;;;;;;17.88;64.45;98951.69;4204917;28;22221;-75
2023/10/14 05:04:28;;;;;;;17.87;5.80;;;;;;;17.88;64.40;98957.16;4207821;28;20244;-75
2023/10/14 05:07:03;;;;;;;11.93;4.77;;;;;;;17.79;64.75;98953.06;4228720;28;20296;-75
2023/10/14 05:09:31;;;;;;;12.93;5.10;;;;;;;17.84;64.76;98958.69;4231787;28;20234;-74
2023/10/14 05:12:00;;;;;;;19.70;5.80;;;;;;;17.77;64.79;98948.91;4239891;28;21453;-74
2023/10/14 05:14:45;;;;;;;23.23;5.17;;;;;;;17.71;64.96;98951.47;4252063;28;20232;-75
2023/10/14 05:17:17;;;;;;;18.13;4.90;;;;;;;17.74;64.70;98952.94;4241106;28;23098;-75
2023/10/14 05:19:47;;;;;;;13.17;4.93;;;;;;;17.76;64.56;98949.97;4217947;28;21031;-77
2023/10/14 05:22:24;;;;;;;15.07;4.63;;;;;;;17.83;64.05;98947.97;4234377;28;25028;-76
2023/10/14 05:24:54;;;;;;;13.60;5.20;;;;;;;17.89;63.90;98953.38;4251182;28;21529;-76
2023/10/14 05:27:22;;;;;;;15.33;5.20;;;;;;;17.88;63.42;98946.22;4238195;28;20311;-76
2023/10/14 05:29:52;;;;;;;14.13;4.43;;;;;;;17.95;62.91;98939.81;4237453;28;20243;-77
2023/10/14 05:32:24;;;;;;;20.03;5.40;;;;;;;17.97;63.07;98951.41;4238139;28;20243;-76
2023/10/14 05:34:52;;;;;;;14.13;4.83;;;;;;;18.02;62.40;98949.63;4240137;28;20223;-76
2023/10/14 05:37:21;;;;;;;12.27;4.90;;;;;;;18.03;62.52;98951.28;4217836;28;20675;-73
2023/10/14 05:39:50;;;;;;;16.00;5.13;;;;;;;18.02;62.40;98949.63;4232720;28;20634;-74
2023/10/14 05:42:20;;;;;;;16.17;4.90;;;;;;;18.12;61.93;98943.59;4238914;28;20603;-74
2023/10/14 05:44:49;;;;;;;16.33;4.77;;;;;;;18.06;62.18;98941.78;4220705;28;20278;-73
2023/10/14 05:47:22;;;;;;;10.27;4.43;;;;;;;18.14;61.75;98946.91;4234408;28;22767;-74
2023/10/14 05:49:52;;;;;;;10.70;4.80;;;;;;;18.05;62.15;98945.59;4228529;28;20315;-76
2023/10/14 05:52:24;;;;;;;12.93;4.53;;;;;;;18.16;61.70;98944.78;4217377;28;20230;-74
2023/10/14 05:54:52;;;;;;;15.73;5.30;;;;;;;18.18;61.45;98941.81;4212817;28;20233;-75
2023/10/14 05:57:20;;;;;;;17.63;4.23;;;;;;;18.17;61.36;98931.91;4233493;28;20384;-72
2023/10/14 05:59:48;;;;;;;18.63;5.23;;;;;;;18.21;61.18;98939.44;4239410;28;20236;-72
2023/10/14 06:02:15;;;;;;;10.23;4.80;;;;;;;18.17;61.35;98938.25;4219322;28;20385;-73
2023/10/14 06:04:42;;;;;;;13.43;4.33;;;;;;;18.19;61.40;98929.78;4211854;28;21710;-73
2023/10/14 06:07:14;;;;;;;19.63;5.00;;;;;;;18.27;61.35;98942.31;4215108;28;21347;-76
2023/10/14 06:09:47;;;;;;;12.70;4.77;;;;;;;18.21;61.52;98944.09;4215729;28;21774;-73
2023/10/14 06:12:16;;;;;;;15.10;5.23;;;;;;;18.25;61.56;98934.31;4205989;28;20232;-75
2023/10/14 06:14:45;;;;;;;18.77;5.57;;;;;;;18.25;61.47;98938.97;4216462;28;20240;-75
2023/10/14 06:17:12;;;;;;;13.07;4.80;;;;;;;18.20;61.59;98945.16;4210856;28;21089;-73
2023/10/14 06:19:39;;;;;;;25.03;5.60;;;;;;;18.25;61.36;98947.19;4227162;28;21042;-76
2023/10/14 06:22:09;;;;;;;16.53;4.97;;;;;;;18.25;61.34;98939.78;4235544;28;20256;-76
2023/10/14 06:24:36;;;;;;;18.57;4.80;;;;;;;18.16;61.57;98933.84;4234973;28;20228;-74
2023/10/14 06:27:08;;;;;;;16.53;4.70;;;;;;;18.24;61.31;98945.53;4230486;28;25757;-75
2023/10/14 06:29:37;;;;;;;14.97;4.83;;;;;;;18.23;61.74;98938.38;4226692;28;20675;-73
2023/10/14 06:32:04;;;;;;;17.53;5.30;;;;;;;18.28;61.58;98946.72;4248570;28;20308;-73
2023/10/14 06:34:47;;;;;;;12.80;4.70;;;;;;;18.30;61.66;98937.22;4219639;28;20231;-76
2023/10/14 06:37:14;;;;;;;14.27;4.70;;;;;;;18.33;61.25;98938.63;4241243;28;21080;-75
2023/10/14 06:39:42;;;;;;;15.67;5.00;;;;;;;18.35;61.35;98947.47;4247046;28;21645;-76
2023/10/14 06:42:08;;;;;;;18.53;4.73;;;;;;;18.37;61.40;98951.63;4257571;28;20245;-76
2023/10/14 06:44:36;;;;;;;13.20;4.60;;;;;;;18.40;61.45;98957.69;4275349;28;21617;-74
2023/10/14 06:47:03;;;;;;;20.50;5.93;;;;;;;18.39;61.38;98950.56;4214745;28;20239;-72
2023/10/14 06:49:36;;;;;;;14.67;5.20;;;;;;;18.55;60.91;98958.06;4234927;28;20327;-73
2023/10/14 06:52:06;;;;;;;17.40;5.17;;;;;;;18.60;60.71;98950.00;4240582;28;20313;-74
2023/10/14 06:54:36;;;;;;;14.43;4.83;;;;;;;18.58;60.80;98951.31;4235712;28;20244;-73
2023/10/14 06:57:07;;;;;;;13.07;5.10;;;;;;;18.58;60.73;98940.34;4207771;28;20246;-73
2023/10/14 06:59:37;;;;;;;14.80;4.43;;;;;;;18.59;60.88;98942.00;4281973;28;20288;-71
2023/10/14 07:02:05;;;;;;;20.80;4.50;;;;;;;18.68;60.58;98946.06;4234028;28;20319;-72
2023/10/14 07:04:37;;;;;;;11.80;5.13;;;;;;;18.68;60.67;98938.69;4226448;28;20233;-72
2023/10/14 07:07:09;;;;;;;12.93;4.87;;;;;;;18.75;60.23;98937.72;4255346;28;20240;-72
2023/10/14 07:09:39;;;;;;;19.30;5.20;;;;;;;18.77;60.57;98936.41;4253200;28;20228;-72
2023/10/14 07:12:13;;;;;;;18.77;4.93;;;;;;;18.85;60.31;98925.09;4277058;28;20235;-72
2023/10/14 07:14:41;;;;;;;17.73;4.83;;;;;;;18.90;60.27;98943.56;4246187;28;21924;-74
2023/10/14 07:17:08;;;;;;;13.50;5.33;;;;;;;18.97;60.19;98938.81;4220677;28;20270;-73
2023/10/14 07:19:35;;;;;;;16.57;5.40;;;;;;;19.04;59.76;98930.47;4256839;28;22018;-69
2023/10/14 07:22:07;;;;;;;15.23;5.00;;;;;;;19.14;59.58;98933.44;4229075;28;20352;-69
2023/10/14 07:24:35;;;;;;;14.37;5.17;;;;;;;19.16;59.32;98931.28;4247621;28;20305;-71
2023/10/14 07:27:03;;;;;;;17.77;5.10;;;;;;;19.27;59.06;98935.09;4240452;28;20235;-72
2023/10/14 07:29:30;;;;;;;19.13;5.50;;;;;;;19.54;58.36;98926.28;4263994;28;20244;-68
2023/10/14 07:31:57;;;;;;;14.27;5.50;;;;;;;20.18;56.54;98930.84;4277654;28;20233;-71
2023/10/14 07:34:24;;;;;;;19.17;5.33;;;;;;;22.23;50.84;98920.09;4250425;28;20242;-71
2023/10/14 07:36:53;;;;;;;16.83;5.00;;;;;;;24.75;44.91;98916.78;4237137;28;20332;-72
2023/10/14 07:39:29;;;;;;;15.43;4.97;;;;;;;25.84;41.67;98908.09;4254356;28;20306;-71
2023/10/14 07:41:56;;;;;;;14.23;4.83;;;;;;;26.90;39.61;98917.84;4269295;28;22047;-71
2023/10/14 07:44:23;;;;;;;11.43;4.67;;;;;;;27.08;38.36;98904.34;4231941;28;20338;-69
2023/10/14 07:46:50;;;;;;;10.30;5.13;;;;;;;26.87;38.89;98907.34;4238947;28;20245;-70
2023/10/14 07:49:19;;;;;;;13.77;5.20;;;;;;;27.39;37.44;98902.03;4232388;28;20239;-71
2023/10/14 07:51:46;;;;;;;14.10;5.00;;;;;;;27.84;36.60;98904.53;4267033;28;20606;-69
2023/10/14 07:54:13;;;;;;;14.03;5.60;;;;;;;28.30;35.38;98909.44;4254152;28;23206;-68
2023/10/14 07:56:46;;;;;;;12.93;5.10;;;;;;;28.61;35.28;98903.34;4248248;28;20457;-69
2023/10/14 07:59:14;;;;;;;15.97;5.00;;;;;;;29.25;34.42;98908.28;4231198;28;20630;-71
2023/10/14 08:01:41;;;;;;;18.30;5.20;;;;;;;29.04;34.02;98902.28;4255992;28;20225;-75
2023/10/14 08:04:14;;;;;;;13.43;5.13;;;;;;;29.22;33.86;98906.16;4252226;28;20389;-70
2023/10/14 08:06:43;;;;;;;16.23;4.57;;;;;;;28.97;33.83;98899.09;4239851;28;20287;-76
2023/10/14 08:09:23;;;;;;;11.67;5.40;;;;;;;29.69;32.80;98899.59;4244600;28;20474;-71
2023/10/14 08:11:51;;;;;;;20.13;4.70;;;;;;;28.53;34.61;98886.50;4234697;28;22235;-72
2023/10/14 08:14:18;;;;;;;16.50;5.17;;;;;;;28.55;34.85;98887.03;4223469;28;20302;-72
2023/10/14 08:16:48;;;;;;;15.60;5.60;;;;;;;28.45;34.70;98883.28;4234102;28;20546;-70
2023/10/14 08:19:16;;;;;;;15.37;5.40;;;;;;;27.78;35.90;98875.16;4230879;28;21894;-72
2023/10/14 08:21:43;;;;;;;15.27;5.43;;;;;;;28.61;34.36;98886.66;4228616;28;20698;-72
2023/10/14 08:24:14;;;;;;;14.43;5.30;;;;;;;29.09;33.69;98884.66;4255919;28;20563;-73
2023/10/14 08:26:41;;;;;;;11.47;5.07;;;;;;;28.45;35.08;98880.50;4229423;28;20745;-71
2023/10/14 08:29:11;;;;;;;18.27;5.90;;;;;;;28.36;35.55;98893.47;4226959;28;21475;-70
2023/10/14 08:31:38;;;;;;;12.97;5.17;;;;;;;29.03;33.70;98889.53;4241648;28;20243;-68
2023/10/14 08:34:09;;;;;;;16.07;5.57;;;;;;;29.85;32.36;98886.16;4259693;28;20231;-71
2023/10/14 08:36:36;;;;;;;21.43;5.80;;;;;;;29.27;33.15;98873.72;4220488;28;20228;-69
2023/10/14 08:39:03;;;;;;;16.50;5.83;;;;;;;28.33;34.56;98879.31;4236950;28;20581;-72
2023/10/14 08:41:33;;;;;;;16.57;5.40;;;;;;;27.73;35.50;98887.16;4243428;28;22269;-69
2023/10/14 08:44:08;;;;;;;18.40;5.63;;;;;;;27.65;36.13;98880.31;4232011;28;20255;-71
2023/10/14 08:46:40;;;;;;;10.93;5.43;;;;;;;27.32;36.88;98888.50;4235842;28;21156;-69
2023/10/14 08:49:12;;;;;;;14.73;5.80;;;;;;;26.08;39.49;98886.91;4261851;28;21152;-73
2023/10/14 08:51:42;;;;;;;17.47;5.20;;;;;;;25.41;40.95;98890.03;4246741;28;20483;-71
2023/10/14 08:54:24;;;;;;;13.37;6.23;;;;;;;24.82;42.53;98894.34;4268057;28;20668;-70
2023/10/14 08:56:51;;;;;;;13.90;4.77;;;;;;;24.79;42.95;98906.00;4241929;28;20281;-70
2023/10/14 08:59:18;;;;;;;23.23;6.07;;;;;;;24.55;43.34;98895.47;4259661;28;20238;-70
2023/10/14 09:01:47;;;;;;;15.40;5.57;;;;;;;23.95;44.56;98907.06;4224886;28;20243;-70
2023/10/14 09:04:29;;;;;;;15.03;6.10;;;;;;;23.61;45.74;98906.66;4231940;28;21572;-70
2023/10/14 09:07:03;;;;;;;16.00;5.83;;;;;;;23.54;46.26;98906.91;4226661;28;20252;-71
2023/10/14 09:09:32;;;;;;;16.57;5.80;;;;;;;23.40;47.11;98903.84;4216311;28;20281;-70
2023/10/14 09:12:10;;;;;;;16.13;5.60;;;;;;;23.16;47.43;98901.47;4217626;28;20267;-66
2023/10/14 09:14:41;;;;;;;19.33;5.90;;;;;;;23.04;47.75;98898.94;4242108;28;20237;-68
2023/10/14 09:17:09;;;;;;;16.83;6.40;;;;;;;22.79;48.55;98900.44;4262324;28;21576;-71
2023/10/14 09:19:45;;;;;;;14.37;5.73;;;;;;;22.61;49.81;98912.72;4235347;28;20706;-70
2023/10/14 09:22:27;;;;;;;17.07;5.57;;;;;;;22.63;50.02;98915.22;4245890;28;21733;-71
2023/10/14 09:24:58;;;;;;;17.83;6.13;;;;;;;22.60;50.37;98922.09;4224100;28;20244;-68
2023/10/14 09:27:26;;;;;;;17.07;6.10;;;;;;;22.37;50.65;98919.66;4235876;28;25011;-69
2023/10/14 09:29:57;;;;;;;15.63;6.10;;;;;;;22.32;51.02;98920.44;4251945;28;25112;-69
2023/10/14 09:32:24;;;;;;;15.93;6.27;;;;;;;22.34;51.62;98926.53;4231197;28;21404;-69
2023/10/14 09:34:52;;;;;;;18.30;6.17;;;;;;;22.09;51.70;98924.38;4236272;28;20356;-71
2023/10/14 09:37:21;;;;;;;16.00;6.20;;;;;;;21.98;51.54;98924.28;4269308;28;21736;-72
2023/10/14 09:39:53;;;;;;;19.53;6.13;;;;;;;22.02;51.94;98935.59;4232703;28;20321;-71
2023/10/14 09:42:25;;;;;;;15.43;6.20;;;;;;;21.89;52.36;98922.25;4238554;28;21641;-72
2023/10/14 09:44:54;;;;;;;20.40;6.23;;;;;;;21.76;52.90;98910.56;4246795;28;21477;-70
2023/10/14 09:47:22;;;;;;;21.37;6.70;;;;;;;21.86;52.81;98918.09;4243742;28;20235;-72
2023/10/14 09:49:51;;;;;;;15.30;6.20;;;;;;;21.96;51.91;98923.72;4231033;28;20278;-70
2023/10/14 09:52:19;;;;;;;14.53;5.77;;;;;;;21.70;52.90;98906.09;4262319;28;20329;-71
2023/10/14 09:54:49;;;;;;;66.80;25.20;;;;;;;21.81;52.71;98920.81;4247792;28;20354;-70
2023/10/14 09:57:17;;;;;;;13.57;6.07;;;;;;;21.82;52.71;98914.22;4231712;28;21518;-70
2023/10/14 09:59:47;;;;;;;16.53;5.70;;;;;;;21.78;52.40;98902.03;4231060;28;20625;-74
2023/10/14 10:02:16;;;;;;;18.07;6.40;;;;;;;21.75;52.44;98913.59;4243120;28;20235;-72
2023/10/14 10:04:45;;;;;;;19.67;6.03;;;;;;;21.80;52.35;98911.69;4259927;28;20245;-71
2023/10/14 10:07:18;;;;;;;16.63;5.60;;;;;;;21.76;52.13;98910.56;4225435;28;20522;-69
2023/10/14 10:10:14;;;;;;;13.20;5.50;;;;;;;21.83;51.99;98905.69;4248656;28;20234;-69
2023/10/14 10:12:44;;;;;;;20.60;6.30;;;;;;;21.90;51.93;98907.38;4246782;28;20243;-72
2023/10/14 10:15:19;;;;;;;13.27;5.63;;;;;;;21.98;51.72;98912.44;4221894;28;20906;-71
2023/10/14 10:18:03;;;;;;;11.37;5.00;;;;;;;21.87;51.90;98906.00;4248989;28;20977;-71
2023/10/14 10:20:35;;;;;;;19.27;6.67;;;;;;;21.91;52.16;98925.59;4238745;28;21763;-73
2023/10/14 10:23:06;;;;;;;16.77;5.70;;;;;;;21.93;51.86;98912.38;4221201;28;20766;-71
2023/10/14 10:25:36;;;;;;;14.73;5.70;;;;;;;21.87;51.92;98917.00;4243765;28;20368;-69
2023/10/14 10:28:26;;;;;;;16.20;5.37;;;;;;;21.89;51.72;98903.81;4231010;28;20357;-71
2023/10/14 10:30:55;;;;;;;12.83;5.00;;;;;;;21.74;51.68;98895.38;4232054;28;20599;-71
2023/10/14 10:33:24;;;;;;;14.50;5.47;;;;;;;21.74;51.77;98893.44;4245927;28;22945;-70
2023/10/14 10:36:13;;;;;;;16.80;5.10;;;;;;;21.81;51.80;98901.53;4244099;28;20805;-70
2023/10/14 10:38:41;;;;;;;12.97;5.20;;;;;;;21.65;52.24;98897.75;4226328;28;23039;-71
2023/10/14 10:41:19;;;;;;;18.10;5.73;;;;;;;21.67;52.18;98896.44;4200971;28;20231;-70
2023/10/14 10:43:46;;;;;;;10.27;5.23;;;;;;;21.46;53.40;98892.56;4236410;28;22980;-71
2023/10/14 10:46:29;;;;;;;12.20;5.20;;;;;;;21.66;52.55;98897.53;4246041;28;20232;-70
2023/10/14 10:48:58;;;;;;;16.47;5.63;;;;;;;21.65;52.58;98898.59;4237803;28;20276;-69
2023/10/14 10:51:31;;;;;;;16.07;5.07;;;;;;;21.76;52.04;98904.19;4237818;28;20244;-70
2023/10/14 10:53:59;;;;;;;12.87;4.90;;;;;;;21.69;52.25;98905.25;4265307;28;20247;-69
2023/10/14 10:56:31;;;;;;;19.40;6.10;;;;;;;21.47;52.90;98896.16;4234245;28;20232;-69
2023/10/14 10:59:01;;;;;;;17.43;5.73;;;;;;;21.31;53.94;98884.13;4232708;28;20874;-68
2023/10/14 11:01:32;;;;;;;12.50;5.13;;;;;;;21.40;53.32;98890.00;4217309;28;20306;-70
2023/10/14 11:04:08;;;;;;;17.63;5.10;;;;;;;21.66;52.14;98889.25;4221156;28;20871;-68
2023/10/14 11:06:35;;;;;;;18.27;5.30;;;;;;;21.65;52.57;98883.97;4229581;28;20378;-69
2023/10/14 11:09:03;;;;;;;20.30;5.53;;;;;;;21.44;53.06;98886.47;4230336;28;21996;-68
2023/10/14 11:11:34;;;;;;;13.27;5.40;;;;;;;21.39;53.34;98897.44;4211964;28;21817;-70
2023/10/14 11:14:01;;;;;;;19.03;5.30;;;;;;;21.30;54.07;98897.03;4220994;28;20243;-69
2023/10/14 11:16:30;;;;;;;16.27;5.17;;;;;;;21.31;53.74;98904.22;4235690;28;20244;-50
2023/10/14 11:18:57;;;;;;;14.53;4.70;;;;;;;21.30;53.97;98901.72;4220547;28;20495;-57
2023/10/14 11:21:27;;;;;;;19.50;5.07;;;;;;;21.27;54.33;98902.22;4231202;28;20252;-50
2023/10/14 11:23:55;;;;;;;16.80;4.53;;;;;;;21.18;54.97;98910.97;4241791;28;20708;-69
2023/10/14 11:26:23;;;;;;;15.70;5.03;;;;;;;21.37;53.73;98905.94;4230268;28;20227;-68
2023/10/14 11:28:50;;;;;;;13.10;5.00;;;;;;;21.40;53.79;98907.38;4226418;28;20236;-73
2023/10/14 11:31:20;;;;;;;11.80;5.00;;;;;;;21.47;53.63;98909.91;4269953;28;20247;-68
2023/10/14 11:33:47;;;;;;;15.93;5.07;;;;;;;21.60;53.06;98919.72;4242675;28;22725;-69
2023/10/14 11:36:20;;;;;;;17.77;4.97;;;;;;;21.57;52.60;98920.19;4221283;28;20233;-69
2023/10/14 11:38:47;;;;;;;18.87;5.27;;;;;;;21.36;53.49;98912.56;4238658;28;22658;-69
2023/10/14 11:41:15;;;;;;;11.97;4.83;;;;;;;21.37;53.50;98914.19;4236817;28;20240;-67
2023/10/14 11:43:46;;;;;;;12.73;4.50;;;;;;;21.30;53.70;98907.22;4227255;28;20233;-69
2023/10/14 11:46:13;;;;;;;18.00;4.93;;;;;;;21.40;53.30;98895.50;4273907;28;20295;-68
2023/10/14 11:48:45;;;;;;;13.70;5.07;;;;;;;21.46;52.96;98911.84;4231249;28;21136;-70
2023/10/14 11:51:16;;;;;;;15.00;4.97;;;;;;;21.41;53.36;98916.44;4252207;28;20238;-70
2023/10/14 11:53:44;;;;;;;12.77;4.80;;;;;;;21.41;52.92;98917.28;4261983;28;20244;-67
2023/10/14 11:56:13;;;;;;;22.93;5.53;;;;;;;21.40;53.34;98901.00;4228042;28;22182;-71
2023/10/14 11:58:41;;;;;;;10.30;4.80;;;;;;;21.32;53.44;98910.56;4239211;28;22268;-69
2023/10/14 12:01:11;;;;;;;15.70;5.20;;;;;;;21.41;53.21;98900.78;4230745;28;21208;-71
2023/10/14 12:03:38;;;;;;;16.23;4.80;;;;;;;21.34;53.61;98905.63;4255537;28;22089;-70
2023/10/14 12:06:07;;;;;;;12.27;5.07;;;;;;;21.32;53.69;98918.81;4234157;28;20262;-67
2023/10/14 12:08:38;;;;;;;18.23;4.63;;;;;;;21.28;54.02;98915.75;4237470;28;20265;-69
2023/10/14 12:11:08;;;;;;;13.23;5.57;;;;;;;20.99;54.96;98910.41;4222352;28;21625;-67
2023/10/14 12:13:36;;;;;;;12.53;4.70;;;;;;;20.98;55.46;98921.66;4252966;28;20235;-69
2023/10/14 12:16:17;;;;;;;24.40;5.57;;;;;;;20.90;55.68;98934.75;4230695;28;20254;-69
2023/10/14 12:18:45;;;;;;;13.67;5.03;;;;;;;20.87;55.83;98938.03;4242915;28;20232;-68
2023/10/14 12:21:13;;;;;;;14.90;4.80;;;;;;;20.84;55.98;98926.69;4231671;28;23090;-70
2023/10/14 12:23:40;;;;;;;10.83;4.93;;;;;;;20.93;54.80;98938.09;4228793;28;20244;-70
2023/10/14 12:26:13;;;;;;;16.23;5.07;;;;;;;20.92;54.81;98929.03;4222083;28;20303;-69